createdAt,value
2022-09-15T00:01:12.514Z,100709.03
2022-09-15T00:03:40.833Z,100713.44
2022-09-15T00:06:09.623Z,100708.22
2022-09-15T00:08:37.595Z,100699.50
2022-09-15T00:11:07.334Z,100703.84
2022-09-15T00:13:35.711Z,100706.66
2022-09-15T00:16:04.224Z,100710.88
2022-09-15T00:18:32.640Z,100704.84
2022-09-15T00:21:00.072Z,100713.63
2022-09-15T00:23:27.583Z,100710.19
2022-09-15T00:25:55.065Z,100703.22
2022-09-15T00:28:23.813Z,100702.38
2022-09-15T00:30:53.949Z,100707.63
2022-09-15T00:33:23.146Z,100700.78
2022-09-15T00:35:52.628Z,100713.84
2022-09-15T00:38:21.018Z,100707.03
2022-09-15T00:40:52.033Z,100701.94
2022-09-15T00:43:21.059Z,100705.47
2022-09-15T00:45:49.475Z,100703.94
2022-09-15T00:48:23.267Z,100700.66
2022-09-15T00:50:55.585Z,100706.91
2022-09-15T00:53:24.580Z,100721.97
2022-09-15T00:55:52.820Z,100711.81
2022-09-15T00:58:36.522Z,100717.19
2022-09-15T01:01:08.037Z,100716.56
2022-09-15T01:03:36.700Z,100714.16
2022-09-15T01:06:12.974Z,100710.00
2022-09-15T01:08:54.047Z,100711.00
2022-09-15T01:11:21.837Z,100708.56
2022-09-15T01:13:49.313Z,100709.47
2022-09-15T01:16:49.872Z,100719.06
2022-09-15T01:19:33.584Z,100719.94
2022-09-15T01:22:20.858Z,100725.91
2022-09-15T01:25:10.198Z,100728.41
2022-09-15T01:27:52.161Z,100730.88
2022-09-15T01:30:24.720Z,100731.56
2022-09-15T01:33:14.737Z,100734.78
2022-09-15T01:35:48.429Z,100730.19
2022-09-15T01:38:24.716Z,100730.88
2022-09-15T01:41:01.043Z,100728.88
2022-09-15T01:43:30.522Z,100730.47
2022-09-15T01:45:59.698Z,100723.47
2022-09-15T01:48:29.616Z,100725.09
2022-09-15T01:51:01.381Z,100723.34
2022-09-15T01:53:29.968Z,100719.00
2022-09-15T01:56:02.162Z,100716.47
2022-09-15T01:58:29.673Z,100723.34
2022-09-15T02:01:07.556Z,100725.97
2022-09-15T02:03:45.374Z,100726.81
2022-09-15T02:06:36.564Z,100718.09
2022-09-15T02:09:18.550Z,100722.38
2022-09-15T02:12:03.626Z,100721.63
2022-09-15T02:15:03.546Z,100728.69
2022-09-15T02:17:35.389Z,100729.72
2022-09-15T02:20:17.349Z,100728.84
2022-09-15T02:22:53.592Z,100735.72
2022-09-15T02:25:28.807Z,100721.88
2022-09-15T02:28:02.039Z,100713.28
2022-09-15T02:30:31.762Z,100721.88
2022-09-15T02:33:05.815Z,100728.84
2022-09-15T02:35:36.073Z,100721.88
2022-09-15T02:38:07.394Z,100733.25
2022-09-15T02:40:34.923Z,100722.84
2022-09-15T02:43:05.360Z,100727.13
2022-09-15T02:45:33.150Z,100727.13
2022-09-15T02:48:00.958Z,100732.38
2022-09-15T02:50:28.440Z,100734.16
2022-09-15T02:52:56.678Z,100730.75
2022-09-15T02:55:29.032Z,100730.63
2022-09-15T02:57:58.149Z,100731.53
2022-09-15T03:00:27.081Z,100735.06
2022-09-15T03:02:56.071Z,100738.56
2022-09-15T03:05:26.766Z,100734.16
2022-09-15T03:07:54.986Z,100736.81
2022-09-15T03:10:24.669Z,100736.84
2022-09-15T03:12:54.670Z,100737.69
2022-09-15T03:15:24.263Z,100740.31
2022-09-15T03:17:52.300Z,100734.16
2022-09-15T03:20:23.598Z,100739.41
2022-09-15T03:22:51.569Z,100742.00
2022-09-15T03:25:19.637Z,100742.84
2022-09-15T03:27:47.775Z,100743.69
2022-09-15T03:30:15.737Z,100753.22
2022-09-15T03:32:43.165Z,100753.22
2022-09-15T03:35:10.657Z,100752.38
2022-09-15T03:37:38.368Z,100739.31
2022-09-15T03:40:06.532Z,100750.56
2022-09-15T03:42:34.130Z,100746.22
2022-09-15T03:45:01.656Z,100742.75
2022-09-15T03:47:29.136Z,100742.66
2022-09-15T03:49:56.594Z,100741.78
2022-09-15T03:52:24.030Z,100740.88
2022-09-15T03:54:51.726Z,100743.50
2022-09-15T03:57:19.168Z,100747.69
2022-09-15T03:59:46.657Z,100747.75
2022-09-15T04:02:14.226Z,100740.84
2022-09-15T04:04:41.820Z,100746.81
2022-09-15T04:07:09.821Z,100744.16
2022-09-15T04:09:38.106Z,100735.38
2022-09-15T04:12:05.816Z,100740.69
2022-09-15T04:14:33.296Z,100749.31
2022-09-15T04:17:00.740Z,100754.63
2022-09-15T04:19:28.370Z,100746.88
2022-09-15T04:21:55.839Z,100752.91
2022-09-15T04:24:23.311Z,100768.53
2022-09-15T04:26:50.789Z,100765.13
2022-09-15T04:29:19.452Z,100751.19
2022-09-15T04:31:48.185Z,100742.66
2022-09-15T04:34:15.788Z,100760.84
2022-09-15T04:36:43.250Z,100757.50
2022-09-15T04:39:10.733Z,100753.06
2022-09-15T04:41:38.167Z,100752.19
2022-09-15T04:44:05.819Z,100744.41
2022-09-15T04:46:33.735Z,100747.94
2022-09-15T04:49:01.357Z,100754.03
2022-09-15T04:51:28.945Z,100745.31
2022-09-15T04:53:56.407Z,100745.25
2022-09-15T04:56:25.973Z,100746.13
2022-09-15T04:59:00.896Z,100749.66
2022-09-15T05:01:33.773Z,100747.91
2022-09-15T05:04:03.794Z,100743.56
2022-09-15T05:06:31.306Z,100734.09
2022-09-15T05:08:59.474Z,100729.94
2022-09-15T05:11:28.234Z,100743.69
2022-09-15T05:13:55.962Z,100742.00
2022-09-15T05:16:26.272Z,100749.88
2022-09-15T05:18:56.407Z,100745.59
2022-09-15T05:21:25.110Z,100736.91
2022-09-15T05:23:53.197Z,100737.75
2022-09-15T05:26:27.403Z,100742.94
2022-09-15T05:28:56.031Z,100745.53
2022-09-15T05:31:31.682Z,100746.41
2022-09-15T05:34:01.757Z,100740.31
2022-09-15T05:36:29.971Z,100746.34
2022-09-15T05:38:58.249Z,100749.88
2022-09-15T05:41:27.173Z,100734.34
2022-09-15T05:43:56.910Z,100748.97
2022-09-15T05:46:26.591Z,100751.69
2022-09-15T05:48:55.244Z,100749.94
2022-09-15T05:51:23.087Z,100758.66
2022-09-15T05:53:51.003Z,100762.91
2022-09-15T05:56:20.090Z,100760.13
2022-09-15T05:58:49.318Z,100760.13
2022-09-15T06:01:20.430Z,100768.63
2022-09-15T06:03:48.480Z,100758.06
2022-09-15T06:06:16.440Z,100761.31
2022-09-15T06:08:52.848Z,100761.25
2022-09-15T06:11:24.719Z,100766.25
2022-09-15T06:13:52.338Z,100771.13
2022-09-15T06:16:23.003Z,100782.34
2022-09-15T06:18:52.590Z,100781.28
2022-09-15T06:21:21.706Z,100777.72
2022-09-15T06:23:55.076Z,100780.22
2022-09-15T06:26:23.229Z,100781.84
2022-09-15T06:28:53.066Z,100785.31
2022-09-15T06:31:21.607Z,100783.44
2022-09-15T06:33:52.101Z,100782.63
2022-09-15T06:36:21.788Z,100785.88
2022-09-15T06:38:51.672Z,100784.81
2022-09-15T06:41:19.696Z,100783.78
2022-09-15T06:43:49.248Z,100779.91
2022-09-15T06:46:20.064Z,100779.34
2022-09-15T06:48:48.678Z,100779.25
2022-09-15T06:51:17.962Z,100798.13
2022-09-15T06:53:46.865Z,100785.72
2022-09-15T06:56:17.289Z,100796.13
2022-09-15T06:58:46.111Z,100790.34
2022-09-15T07:01:20.080Z,100783.19
2022-09-15T07:03:48.560Z,100798.44
2022-09-15T07:06:16.210Z,100800.34
2022-09-15T07:08:44.109Z,100804.56
2022-09-15T07:11:12.216Z,100825.41
2022-09-15T07:13:40.148Z,100814.16
2022-09-15T07:16:12.718Z,100819.22
2022-09-15T07:18:43.306Z,100823.16
2022-09-15T07:21:16.749Z,100827.84
2022-09-15T07:23:45.317Z,100833.16
2022-09-15T07:26:15.316Z,100843.84
2022-09-15T07:28:44.644Z,100857.25
2022-09-15T07:31:15.570Z,100857.16
2022-09-15T07:33:43.127Z,100851.75
2022-09-15T07:36:11.723Z,100866.13
2022-09-15T07:38:44.750Z,100857.03
2022-09-15T07:41:15.062Z,100859.53
2022-09-15T07:43:47.825Z,100861.25
2022-09-15T07:46:15.999Z,100862.44
2022-09-15T07:48:48.207Z,100859.63
2022-09-15T07:51:16.530Z,100853.47
2022-09-15T07:53:45.150Z,100861.88
2022-09-15T07:56:13.071Z,100872.88
2022-09-15T07:58:40.941Z,100866.69
2022-09-15T08:01:11.254Z,100877.00
2022-09-15T08:03:46.602Z,100880.03
2022-09-15T08:06:14.626Z,100877.38
2022-09-15T08:08:43.967Z,100881.78
2022-09-15T08:11:18.405Z,100846.50
2022-09-15T08:13:47.311Z,100874.78
2022-09-15T08:16:18.082Z,100880.38
2022-09-15T08:18:46.046Z,100882.00
2022-09-15T08:21:16.215Z,100879.56
2022-09-15T08:23:44.084Z,100880.22
2022-09-15T08:26:14.526Z,100888.06
2022-09-15T08:28:43.064Z,100899.78
2022-09-15T08:31:12.545Z,100895.34
2022-09-15T08:33:44.789Z,100906.13
2022-09-15T08:36:13.812Z,100908.69
2022-09-15T08:38:42.404Z,100916.63
2022-09-15T08:41:23.582Z,100926.38
2022-09-15T08:44:05.729Z,100927.50
2022-09-15T08:46:43.602Z,100933.47
2022-09-15T08:49:47.413Z,100942.00
2022-09-15T08:52:20.355Z,100939.50
2022-09-15T08:54:48.017Z,100957.84
2022-09-15T08:57:21.578Z,100942.16
2022-09-15T08:59:49.097Z,100943.06
2022-09-15T09:02:47.724Z,100939.75
2022-09-15T09:05:36.848Z,100938.19
2022-09-15T09:08:19.510Z,100937.50
2022-09-15T09:10:52.562Z,100930.84
2022-09-15T09:14:11.057Z,100933.66
2022-09-15T09:16:44.322Z,100928.91
2022-09-15T09:19:31.313Z,100933.44
2022-09-15T09:22:12.419Z,100933.44
2022-09-15T09:24:47.624Z,100925.81
2022-09-15T09:27:21.554Z,100939.22
2022-09-15T09:29:53.026Z,100917.06
2022-09-15T09:32:25.039Z,100920.66
2022-09-15T09:35:04.058Z,100914.66
2022-09-15T09:37:33.551Z,100916.97
2022-09-15T09:40:01.760Z,100918.22
2022-09-15T09:42:32.862Z,100910.09
2022-09-15T09:45:00.477Z,100910.50
2022-09-15T09:47:31.255Z,100917.09
2022-09-15T09:49:59.806Z,100913.06
2022-09-15T09:52:36.014Z,100914.38
2022-09-15T09:55:24.866Z,100916.47
2022-09-15T09:57:52.411Z,100911.28
2022-09-15T10:00:40.937Z,100914.25
2022-09-15T10:03:15.425Z,100916.59
2022-09-15T10:05:44.128Z,100912.53
2022-09-15T10:08:18.008Z,100917.66
2022-09-15T10:10:58.242Z,100899.53
2022-09-15T10:13:25.849Z,100904.50
2022-09-15T10:15:56.472Z,100908.72
2022-09-15T10:18:31.779Z,100905.34
2022-09-15T10:21:01.677Z,100891.78
2022-09-15T10:23:32.119Z,100885.84
2022-09-15T10:26:21.390Z,100891.97
2022-09-15T10:29:12.354Z,100881.19
2022-09-15T10:31:40.966Z,100888.31
2022-09-15T10:34:27.325Z,100862.47
2022-09-15T10:37:07.802Z,100873.69
2022-09-15T10:39:56.605Z,100880.72
2022-09-15T10:42:47.366Z,100880.38
2022-09-15T10:45:39.214Z,100881.81
2022-09-15T10:48:45.009Z,100873.53
2022-09-15T10:51:43.127Z,100876.59
2022-09-15T10:54:28.710Z,100881.78
2022-09-15T10:57:18.909Z,100879.06
2022-09-15T11:00:04.641Z,100878.28
2022-09-15T11:02:53.874Z,100884.22
2022-09-15T11:05:48.652Z,100888.34
2022-09-15T11:08:43.153Z,100875.94
2022-09-15T11:11:35.468Z,100878.97
2022-09-15T11:14:16.515Z,100896.56
2022-09-15T11:16:52.187Z,100879.97
2022-09-15T11:19:22.653Z,100884.38
2022-09-15T11:22:17.073Z,100900.13
2022-09-15T11:24:58.764Z,100902.19
2022-09-15T11:27:31.367Z,100903.63
2022-09-15T11:30:04.139Z,100908.94
2022-09-15T11:32:39.184Z,100899.97
2022-09-15T11:35:41.899Z,100904.91
2022-09-15T11:38:32.361Z,100896.59
2022-09-15T11:41:29.218Z,100888.25
2022-09-15T11:44:08.254Z,100893.72
2022-09-15T11:46:47.913Z,100900.13
2022-09-15T11:49:26.055Z,100889.34
2022-09-15T11:52:02.476Z,100893.47
2022-09-15T11:54:38.321Z,100893.22
2022-09-15T11:57:06.914Z,100887.94
2022-09-15T11:59:54.399Z,100879.41
2022-09-15T12:02:32.670Z,100879.78
2022-09-15T12:05:17.493Z,100882.06
2022-09-15T12:08:10.450Z,100881.69
2022-09-15T12:10:42.811Z,100880.53
2022-09-15T12:13:21.754Z,100879.78
2022-09-15T12:15:50.903Z,100889.09
2022-09-15T12:18:40.095Z,100879.69
2022-09-15T12:21:08.296Z,100892.03
2022-09-15T12:23:43.037Z,100882.69
2022-09-15T12:26:18.649Z,100884.91
2022-09-15T12:28:55.243Z,100897.97
2022-09-15T12:31:37.870Z,100906.72
2022-09-15T12:34:27.121Z,100909.38
2022-09-15T12:37:15.897Z,100916.19
2022-09-15T12:39:45.498Z,100915.56
2022-09-15T12:42:26.864Z,100923.56
2022-09-15T12:45:21.825Z,100917.94
2022-09-15T12:47:58.157Z,100932.59
2022-09-15T12:50:41.466Z,100931.53
2022-09-15T12:53:26.957Z,100924.81
2022-09-15T12:56:01.163Z,100931.56
2022-09-15T12:58:36.841Z,100940.91
2022-09-15T13:01:19.726Z,100941.97
2022-09-15T13:03:47.444Z,100945.72
2022-09-15T13:06:18.190Z,100941.13
2022-09-15T13:09:03.770Z,100941.25
2022-09-15T13:11:51.072Z,100946.53
2022-09-15T13:14:36.625Z,100947.63
2022-09-15T13:17:17.152Z,100949.84
2022-09-15T13:19:48.167Z,100947.84
2022-09-15T13:22:38.514Z,100938.31
2022-09-15T13:25:06.109Z,100935.88
2022-09-15T13:27:41.849Z,100935.38
2022-09-15T13:30:28.322Z,100937.94
2022-09-15T13:33:01.654Z,100939.66
2022-09-15T13:35:41.309Z,100939.75
2022-09-15T13:38:32.077Z,100931.19
2022-09-15T13:41:22.278Z,100940.25
2022-09-15T13:44:10.036Z,100932.25
2022-09-15T13:46:54.703Z,100929.38
2022-09-15T13:49:32.786Z,100934.66
2022-09-15T13:52:09.003Z,100932.78
2022-09-15T13:54:36.491Z,100922.56
2022-09-15T13:57:04.135Z,100916.84
2022-09-15T13:59:34.750Z,100920.06
2022-09-15T14:02:02.458Z,100925.22
2022-09-15T14:04:33.192Z,100916.59
2022-09-15T14:07:02.099Z,100923.81
2022-09-15T14:09:34.267Z,100929.72
2022-09-15T14:12:10.231Z,100927.91
2022-09-15T14:14:43.671Z,100903.75
2022-09-15T14:17:26.794Z,100923.06
2022-09-15T14:19:57.067Z,100924.94
2022-09-15T14:22:26.639Z,100928.13
2022-09-15T14:24:55.164Z,100932.50
2022-09-15T14:27:26.976Z,100927.47
2022-09-15T14:29:57.755Z,100937.22
2022-09-15T14:32:27.981Z,100939.94
2022-09-15T14:35:00.610Z,100943.22
2022-09-15T14:37:31.943Z,100933.28
2022-09-15T14:40:01.802Z,100936.78
2022-09-15T14:42:40.966Z,100933.66
2022-09-15T14:48:03.535Z,100944.81
2022-09-15T14:50:33.488Z,100943.69
2022-09-15T14:53:20.817Z,100940.38
2022-09-15T14:55:57.423Z,100945.03
2022-09-15T14:58:31.238Z,100947.63
2022-09-15T15:01:22.452Z,100945.03
2022-09-15T15:03:55.288Z,100942.03
2022-09-15T15:06:32.309Z,100950.13
2022-09-15T15:09:29.927Z,100939.41
2022-09-15T15:12:07.413Z,100942.31
2022-09-15T15:14:36.521Z,100936.06
2022-09-15T15:17:06.898Z,100936.94
2022-09-15T15:19:42.501Z,100944.19
2022-09-15T15:22:17.441Z,100943.59
2022-09-15T15:24:47.011Z,100944.53
2022-09-15T15:27:33.166Z,100943.25
2022-09-15T15:30:31.561Z,100941.19
2022-09-15T15:33:19.591Z,100950.53
2022-09-15T15:35:48.630Z,100948.47
2022-09-15T15:38:25.198Z,100945.59
2022-09-15T15:41:01.881Z,100943.66
2022-09-15T15:43:29.458Z,100957.19
2022-09-15T15:46:02.982Z,100953.75
2022-09-15T15:48:37.805Z,100952.25
2022-09-15T15:51:07.332Z,100964.63
2022-09-15T15:53:35.622Z,100968.38
2022-09-15T15:56:03.317Z,100968.03
2022-09-15T15:58:31.302Z,100968.59
2022-09-15T16:00:58.847Z,100969.34
2022-09-15T16:03:27.365Z,100963.31
2022-09-15T16:05:58.368Z,100962.25
2022-09-15T16:08:33.026Z,100960.25
2022-09-15T16:11:02.453Z,100960.97
2022-09-15T16:13:30.709Z,100976.31
2022-09-15T16:16:00.827Z,100986.91
2022-09-15T16:18:29.455Z,100978.09
2022-09-15T16:20:57.033Z,100975.88
2022-09-15T16:23:28.198Z,100988.47
2022-09-15T16:26:06.267Z,101004.81
2022-09-15T16:28:33.719Z,100989.34
2022-09-15T16:31:01.249Z,101004.44
2022-09-15T16:33:28.821Z,100994.44
2022-09-15T16:36:03.900Z,100996.41
2022-09-15T16:38:31.570Z,101009.66
2022-09-15T16:40:59.106Z,101002.97
2022-09-15T16:43:27.067Z,101002.28
2022-09-15T16:45:54.661Z,100990.72
2022-09-15T16:48:22.384Z,100980.66
2022-09-15T16:51:16.936Z,100982.41
2022-09-15T16:53:40.959Z,100982.47
2022-09-15T16:56:12.242Z,100982.75
2022-09-15T16:58:40.142Z,100981.16
2022-09-15T17:01:09.273Z,100976.03
2022-09-15T17:03:36.764Z,100979.38
2022-09-15T17:06:04.433Z,100984.66
2022-09-15T17:08:33.893Z,100988.47
2022-09-15T17:11:03.819Z,100996.09
2022-09-15T17:13:34.803Z,100992.78
2022-09-15T17:16:02.685Z,101000.66
2022-09-15T17:18:30.738Z,100995.41
2022-09-15T17:20:58.918Z,101004.13
2022-09-15T17:23:28.608Z,100995.38
2022-09-15T17:25:59.088Z,100997.56
2022-09-15T17:28:29.146Z,100996.00
2022-09-15T17:31:01.774Z,100992.78
2022-09-15T17:33:31.065Z,100998.19
2022-09-15T17:35:59.610Z,100989.81
2022-09-15T17:38:27.763Z,101001.97
2022-09-15T17:40:56.169Z,101000.31
2022-09-15T17:43:26.615Z,101016.13
2022-09-15T17:45:54.722Z,101000.38
2022-09-15T17:48:23.206Z,101010.78
2022-09-15T17:50:51.319Z,101006.47
2022-09-15T17:53:26.646Z,101017.09
2022-09-15T17:55:55.787Z,101021.41
2022-09-15T17:58:26.304Z,101035.50
2022-09-15T18:00:54.888Z,101043.59
2022-09-15T18:03:34.619Z,101047.50
2022-09-15T18:06:08.031Z,101050.28
2022-09-15T18:08:36.826Z,101035.19
2022-09-15T18:11:06.182Z,101064.94
2022-09-15T18:13:34.490Z,101053.84
2022-09-15T18:16:13.274Z,101058.44
2022-09-15T18:18:41.425Z,101042.94
2022-09-15T18:21:12.221Z,101062.13
2022-09-15T18:23:42.292Z,101057.94
2022-09-15T18:26:09.839Z,101064.91
2022-09-15T18:28:37.306Z,101065.88
2022-09-15T18:31:04.862Z,101073.81
2022-09-15T18:33:32.329Z,101072.88
2022-09-15T18:36:00.089Z,101076.34
2022-09-15T18:38:27.573Z,101083.44
2022-09-15T18:40:57.474Z,101086.03
2022-09-15T18:43:27.787Z,101081.66
2022-09-15T18:46:02.126Z,101085.16
2022-09-15T18:48:30.303Z,101074.75
2022-09-15T18:50:59.156Z,101081.69
2022-09-15T18:53:27.151Z,101083.44
2022-09-15T18:55:54.662Z,101078.19
2022-09-15T18:58:22.674Z,101077.31
2022-09-15T19:00:50.306Z,101072.97
2022-09-15T19:03:18.156Z,101072.97
2022-09-15T19:05:45.969Z,101074.75
2022-09-15T19:08:13.546Z,101069.50
2022-09-15T19:10:43.779Z,101079.09
2022-09-15T19:13:14.062Z,101075.53
2022-09-15T19:15:41.785Z,101075.53
2022-09-15T19:18:09.440Z,101076.28
2022-09-15T19:20:36.947Z,101078.00
2022-09-15T19:23:04.470Z,101084.97
2022-09-15T19:25:32.124Z,101084.97
2022-09-15T19:27:59.579Z,101079.78
2022-09-15T19:30:27.096Z,101082.38
2022-09-15T19:32:55.051Z,101096.28
2022-09-15T19:35:23.043Z,101095.50
2022-09-15T19:37:50.601Z,101095.50
2022-09-15T19:40:18.309Z,101089.41
2022-09-15T19:42:46.106Z,101074.81
2022-09-15T19:45:14.430Z,101091.31
2022-09-15T19:47:42.645Z,101078.28
2022-09-15T19:50:12.243Z,101076.56
2022-09-15T19:52:39.753Z,101071.44
2022-09-15T19:55:09.577Z,101061.00
2022-09-15T19:57:43.492Z,101078.34
2022-09-15T20:00:13.477Z,101073.13
2022-09-15T20:02:41.086Z,101071.38
2022-09-15T20:05:09.255Z,101074.00
2022-09-15T20:07:37.668Z,101079.25
2022-09-15T20:10:06.141Z,101077.53
2022-09-15T20:12:33.719Z,101074.88
2022-09-15T20:15:01.194Z,101080.03
2022-09-15T20:17:28.880Z,101069.66
2022-09-15T20:19:56.446Z,101078.28
2022-09-15T20:22:23.971Z,101079.19
2022-09-15T20:24:51.838Z,101087.84
2022-09-15T20:27:19.410Z,101091.34
2022-09-15T20:29:46.881Z,101099.19
2022-09-15T20:32:14.471Z,101103.53
2022-09-15T20:34:41.936Z,101096.66
2022-09-15T20:37:09.526Z,101106.25
2022-09-15T20:39:37.248Z,101100.19
2022-09-15T20:42:04.930Z,101105.53
2022-09-15T20:44:32.427Z,101111.63
2022-09-15T20:46:59.874Z,101108.25
2022-09-15T20:49:27.400Z,101110.84
2022-09-15T20:51:56.039Z,101094.34
2022-09-15T20:54:24.097Z,101103.94
2022-09-15T20:56:51.592Z,101106.56
2022-09-15T20:59:19.465Z,101110.06
2022-09-15T21:01:47.119Z,101104.81
2022-09-15T21:04:14.814Z,101110.06
2022-09-15T21:06:42.385Z,101100.53
2022-09-15T21:09:09.830Z,101114.44
2022-09-15T21:11:37.409Z,101110.16
2022-09-15T21:14:04.908Z,101110.22
2022-09-15T21:16:33.872Z,101105.94
2022-09-15T21:19:01.755Z,101103.41
2022-09-15T21:21:32.378Z,101106.88
2022-09-15T21:24:03.778Z,101113.84
2022-09-15T21:26:34.858Z,101106.88
2022-09-15T21:29:02.904Z,101117.28
2022-09-15T21:31:33.696Z,101114.72
2022-09-15T21:34:01.414Z,101108.59
2022-09-15T21:36:31.375Z,101110.31
2022-09-15T21:39:00.474Z,101121.59
2022-09-15T21:41:29.792Z,101121.53
2022-09-15T21:43:58.329Z,101113.63
2022-09-15T21:46:28.726Z,101117.88
2022-09-15T21:48:58.041Z,101130.94
2022-09-15T21:51:27.047Z,101118.81
2022-09-15T21:53:56.082Z,101138.91
2022-09-15T21:56:24.514Z,101129.44
2022-09-15T21:58:52.367Z,101133.03
2022-09-15T22:01:25.787Z,101121.84
2022-09-15T22:03:55.975Z,101122.72
2022-09-15T22:06:27.581Z,101117.56
2022-09-15T22:08:55.601Z,101107.16
2022-09-15T22:11:23.885Z,101108.03
2022-09-15T22:13:51.408Z,101097.59
2022-09-15T22:16:22.139Z,101104.50
2022-09-15T22:18:50.536Z,101101.03
2022-09-15T22:21:20.872Z,101105.41
2022-09-15T22:23:51.730Z,101101.94
2022-09-15T22:26:27.694Z,101110.66
2022-09-15T22:28:56.354Z,101103.66
2022-09-15T22:31:24.962Z,101098.44
2022-09-15T22:33:53.430Z,101101.03
2022-09-15T22:36:28.132Z,101108.88
2022-09-15T22:39:02.822Z,101094.97
2022-09-15T22:41:31.067Z,101104.53
2022-09-15T22:43:58.866Z,101103.63
2022-09-15T22:46:26.650Z,101116.66
2022-09-15T22:48:54.086Z,101117.50
2022-09-15T22:51:21.572Z,101107.06
2022-09-15T22:53:49.126Z,101114.88
2022-09-15T22:56:20.004Z,101108.75
2022-09-15T22:58:49.505Z,101103.53
2022-09-15T23:01:19.820Z,101098.31
2022-09-15T23:03:55.724Z,101104.34
2022-09-15T23:06:24.565Z,101103.50
2022-09-15T23:09:03.276Z,101100.88
2022-09-15T23:11:33.241Z,101100.00
2022-09-15T23:14:01.434Z,101093.06
2022-09-15T23:16:30.968Z,101092.19
2022-09-15T23:18:58.647Z,101092.22
2022-09-15T23:21:26.640Z,101082.69
2022-09-15T23:23:55.446Z,101084.41
2022-09-15T23:26:24.470Z,101086.16
2022-09-15T23:28:52.048Z,101086.16
2022-09-15T23:31:20.331Z,101087.88
2022-09-15T23:33:48.747Z,101091.31
2022-09-15T23:36:19.507Z,101087.84
2022-09-15T23:38:48.113Z,101080.88
2022-09-15T23:41:17.127Z,101083.47
2022-09-15T23:43:45.214Z,101093.00
2022-09-15T23:46:12.853Z,101092.16
2022-09-15T23:48:40.423Z,101086.06
2022-09-15T23:51:08.144Z,101090.44
2022-09-15T23:53:36.168Z,101084.34
2022-09-15T23:56:04.119Z,101092.19
2022-09-15T23:58:31.665Z,101096.53
